METAR-Meldungen aus der Umgebung

   
EDMO - Oberpfaffenhofen, Germany
Entfernung von der Station bis: SSO 18 km
Aktualisierung: 11-05-2021 12:20
Klar  
Klar  
   Wind: Norden 9.3 km/h
Wind: Norden 9.3 km/h
Temperatur: 15°C
Taupunkt: 11°C
Luftfeuchte: 77%
Luftdruck: 1006 hPa
Sichtbarkeit: Mehr als 10 km
Bewölkung: Klar ft
EDMO 111020Z 01005KT 310V060 CAVOK 15/11 Q1006
ETSL - Lechfeld (ger-Af, Germany
Entfernung von der Station bis: WSW 23 km
Aktualisierung: 11-05-2021 12:20
Stark bewölkt  
Stark bewölkt  
   Wind: Norden 9.3 km/h
Wind: Norden 9.3 km/h
Temperatur: 16°C
Taupunkt: 10°C
Luftfeuchte: 68%
Luftdruck: 1006 hPa
Bewölkt: Mostly Cloudy
Sichtbarkeit: Mehr als 10 km
Bewölkung: leicht bewölkt 2000 ft,
Stark bewölkt 13000 ft,
Stark bewölkt 22000 ft
ETSL 111020Z 01005KT 9999 FEW020 BKN130 BKN220 16/10 Q1006 BLU BLU
EDMA - Augsburg/Mulhaus, Germany
Entfernung von der Station bis: NW 30 km
Aktualisierung: 11-05-2021 13:20
Klar  
Klar  
   Wind: WNW 13 km/h
Wind: WNW 13 km/h
Temperatur: 16°C
Taupunkt: 12°C
Luftfeuchte: 77%
Luftdruck: 1006 hPa
Sichtbarkeit: Mehr als 10 km
Bewölkung: Klar ft
EDMA 111120Z 29007KT 260V330 CAVOK 16/12 Q1006
ETHA - Altenstadt/Schon, Germany
Entfernung von der Station bis: SSW 49 km
Aktualisierung: 11-05-2021 12:20
Stark bewölkt  
Stark bewölkt  
   Wind: NO 9.3 km/h
Wind: NO 9.3 km/h
Temperatur: 16°C
Taupunkt: 10°C
Luftfeuchte: 68%
Luftdruck: 1006 hPa
Bewölkt: Mostly Cloudy
Sichtbarkeit: Mehr als 10 km
Bewölkung: leicht bewölkt 4000 ft,
Stark bewölkt 10000 ft,
Stark bewölkt 22000 ft
ETHA 111020Z 04005KT 9999 FEW040 BKN100 BKN220 16/10 Q1006 BLU BLU
EDDM - Munich-Flughafen, Germany
Entfernung von der Station bis: ONO 50 km
Aktualisierung: 11-05-2021 13:20
Klar  
Klar  
   Wind: variiert 1.9 km/h
Wind: variiert 1.9 km/h
Temperatur: 18°C
Taupunkt: 12°C
Luftfeuchte: 68%
Luftdruck: 1005 hPa
Sichtbarkeit: Mehr als 10 km
Bewölkung: Klar ft
EDDM 111120Z VRB01KT CAVOK 18/12 Q1005 NOSIG
 

Script entwickelt von  Saratoga-weather.org Angepasst für das Template von  Weerstation Leuven